createdAt,value
2024-04-01T00:00:53.874Z,79.1993
2024-04-01T00:01:54.825Z,79.5602
2024-04-01T00:02:55.808Z,80.0007
2024-04-01T00:03:56.945Z,79.8549
2024-04-01T00:04:58.045Z,79.6824
2024-04-01T00:05:58.991Z,80.0227
2024-04-01T00:06:59.967Z,80.3359
2024-04-01T00:08:01.072Z,80.5064
2024-04-01T00:09:02.207Z,80.7779
2024-04-01T00:10:03.308Z,81.0861
2024-04-01T00:11:04.454Z,81.3201
2024-04-01T00:12:05.554Z,81.5444
2024-04-01T00:13:06.514Z,81.7253
2024-04-01T00:14:07.481Z,82.1141
2024-04-01T00:15:08.594Z,82.3056
2024-04-01T00:16:09.511Z,82.5384
2024-04-01T00:17:10.447Z,82.7471
2024-04-01T00:18:11.432Z,82.7335
2024-04-01T00:19:12.455Z,82.7751
2024-04-01T00:20:13.410Z,82.8475
2024-04-01T00:21:14.413Z,82.6832
2024-04-01T00:22:15.514Z,82.5709
2024-04-01T00:23:16.614Z,82.6398
2024-04-01T00:24:17.592Z,82.6218
2024-04-01T00:25:18.540Z,82.3674
2024-04-01T00:26:19.642Z,82.3988
2024-04-01T00:27:20.605Z,82.3806
2024-04-01T00:28:21.635Z,82.5074
2024-04-01T00:29:22.714Z,82.5619
2024-04-01T00:30:23.806Z,82.6802
2024-04-01T00:31:24.769Z,82.8020
2024-04-01T00:32:25.735Z,82.9679
2024-04-01T00:33:26.677Z,83.1766
2024-04-01T00:34:33.246Z,83.4021
2024-04-01T00:35:29.835Z,83.4129
2024-04-01T00:36:30.845Z,83.2608
2024-04-01T00:37:31.974Z,83.2138
2024-04-01T00:38:33.092Z,83.3984
2024-04-01T00:39:34.230Z,83.3525
2024-04-01T00:40:35.334Z,83.3769
2024-04-01T00:41:36.445Z,83.5007
2024-04-01T00:42:37.386Z,83.5201
2024-04-01T00:43:38.393Z,83.6076
2024-04-01T00:44:39.314Z,83.3707
2024-04-01T00:45:40.317Z,82.9929
2024-04-01T00:46:41.418Z,83.0091
2024-04-01T00:47:42.343Z,83.2422
2024-04-01T00:48:43.384Z,83.6453
2024-04-01T00:49:44.452Z,83.9144
2024-04-01T00:50:45.400Z,84.1544
2024-04-01T00:51:46.370Z,84.5440
2024-04-01T00:52:47.362Z,84.4504
2024-04-01T00:53:48.323Z,84.5369
2024-04-01T00:54:49.409Z,84.5737
2024-04-01T00:55:50.353Z,84.7158
2024-04-01T00:56:51.320Z,84.6478
2024-04-01T00:57:52.452Z,84.5763
2024-04-01T00:58:53.545Z,84.3886
2024-04-01T00:59:54.493Z,84.4479
2024-04-01T01:00:55.481Z,84.4938
2024-04-01T01:01:56.421Z,84.2843
2024-04-01T01:02:57.406Z,84.1343
2024-04-01T01:03:58.528Z,83.9087
2024-04-01T01:04:59.640Z,83.8047
2024-04-01T01:06:00.770Z,83.7367
2024-04-01T01:07:02.699Z,83.4847
2024-04-01T01:08:03.981Z,83.7234
2024-04-01T01:09:04.900Z,83.9052
2024-04-01T01:10:05.906Z,83.8168
2024-04-01T01:11:07.015Z,83.6994
2024-04-01T01:12:08.120Z,83.7572
2024-04-01T01:13:09.242Z,83.7255
2024-04-01T01:14:10.184Z,83.5414
2024-04-01T01:15:11.157Z,83.4294
2024-04-01T01:16:12.106Z,83.4038
2024-04-01T01:17:13.082Z,83.2336
2024-04-01T01:18:14.032Z,82.6994
2024-04-01T01:19:15.010Z,82.7559
2024-04-01T01:20:15.974Z,82.9730
2024-04-01T01:21:16.926Z,83.0668
2024-04-01T01:22:18.683Z,83.0348
2024-04-01T01:23:19.801Z,82.9709
2024-04-01T01:24:20.927Z,82.8459
2024-04-01T01:25:21.896Z,83.0814
2024-04-01T01:26:22.857Z,83.2837
2024-04-01T01:27:23.890Z,83.2138
2024-04-01T01:28:24.851Z,82.9426
2024-04-01T01:29:25.904Z,82.6357
2024-04-01T01:30:27.044Z,82.8085
2024-04-01T01:31:28.136Z,82.1938
2024-04-01T01:32:29.064Z,81.3713
2024-04-01T01:33:30.099Z,81.2918
2024-04-01T01:34:31.155Z,81.5346
2024-04-01T01:35:32.113Z,81.8412
2024-04-01T01:36:33.078Z,81.9317
2024-04-01T01:37:34.217Z,81.8814
2024-04-01T01:38:35.145Z,81.9208
2024-04-01T01:39:36.125Z,82.0264
2024-04-01T01:40:37.205Z,82.1883
2024-04-01T01:41:38.163Z,82.3446
2024-04-01T01:42:39.106Z,82.5956
2024-04-01T01:43:40.061Z,82.7746
2024-04-01T01:44:41.087Z,83.1038
2024-04-01T01:45:42.054Z,83.4490
2024-04-01T01:46:42.995Z,83.6532
2024-04-01T01:47:43.930Z,83.8950
2024-04-01T01:48:44.921Z,84.1357
2024-04-01T01:49:46.044Z,84.4683
2024-04-01T01:50:47.012Z,84.4445
2024-04-01T01:51:47.968Z,84.5704
2024-04-01T01:52:49.057Z,84.8010
2024-04-01T01:53:49.979Z,84.9682
2024-04-01T01:54:50.980Z,85.0508
2024-04-01T01:55:51.946Z,85.1320
2024-04-01T01:56:52.923Z,85.3767
2024-04-01T01:57:53.885Z,84.5788
2024-04-01T01:58:54.844Z,83.7211
2024-04-01T01:59:55.813Z,83.4433
2024-04-01T02:00:56.752Z,83.3979
2024-04-01T02:01:57.981Z,83.2353
2024-04-01T02:02:58.987Z,83.2675
2024-04-01T02:04:00.127Z,83.3434
2024-04-01T02:05:01.087Z,83.3140
2024-04-01T02:06:02.062Z,82.5482
2024-04-01T02:07:02.973Z,81.9380
2024-04-01T02:08:04.007Z,81.2466
2024-04-01T02:09:04.909Z,80.8874
2024-04-01T02:10:05.907Z,80.9577
2024-04-01T02:11:07.001Z,80.7552
2024-04-01T02:12:07.959Z,80.5871
2024-04-01T02:13:08.934Z,80.6512
2024-04-01T02:14:10.058Z,80.5728
2024-04-01T02:15:11.152Z,80.6203
2024-04-01T02:16:12.118Z,80.1593
2024-04-01T02:17:13.106Z,80.1901
2024-04-01T02:18:14.197Z,80.3495
2024-04-01T02:19:15.155Z,80.2175
2024-04-01T02:20:16.121Z,79.7735
2024-04-01T02:21:17.228Z,78.9151
2024-04-01T02:22:18.152Z,78.6120
2024-04-01T02:23:19.159Z,78.6954
2024-04-01T02:24:20.225Z,78.3368
2024-04-01T02:25:21.187Z,78.2158
2024-04-01T02:26:22.230Z,77.8856
2024-04-01T02:27:23.338Z,77.4414
2024-04-01T02:28:24.472Z,77.2240
2024-04-01T02:29:25.710Z,77.6061
2024-04-01T02:30:26.729Z,77.4543
2024-04-01T02:31:27.872Z,77.3009
2024-04-01T02:32:28.923Z,77.2919
2024-04-01T02:33:29.893Z,76.8430
2024-04-01T02:34:30.880Z,76.6637
2024-04-01T02:35:31.953Z,76.8250
2024-04-01T02:36:34.722Z,77.1297
2024-04-01T02:37:33.740Z,76.9332
2024-04-01T02:38:34.685Z,76.8430
2024-04-01T02:39:35.606Z,76.9095
2024-04-01T02:40:36.606Z,77.4064
2024-04-01T02:41:37.721Z,77.0471
2024-04-01T02:42:38.695Z,76.9850
2024-04-01T02:43:39.640Z,77.2620
2024-04-01T02:44:40.763Z,77.4021
2024-04-01T02:45:41.888Z,77.3435
2024-04-01T02:46:42.833Z,77.2060
2024-04-01T02:47:43.804Z,76.5977
2024-04-01T02:48:44.733Z,76.6734
2024-04-01T02:49:45.731Z,77.1666
2024-04-01T02:50:46.781Z,76.8123
2024-04-01T02:51:47.713Z,77.1677
2024-04-01T02:52:48.778Z,77.0094
2024-04-01T02:53:49.891Z,76.5929
2024-04-01T02:54:51.006Z,76.4830
2024-04-01T02:55:51.964Z,76.7070
2024-04-01T02:56:52.924Z,76.1352
2024-04-01T02:57:53.862Z,76.8849
2024-04-01T02:58:54.846Z,76.6053
2024-04-01T02:59:55.963Z,77.5645
2024-04-01T03:00:57.059Z,77.8416
2024-04-01T03:01:58.050Z,77.8894
2024-04-01T03:02:59.024Z,78.6968
2024-04-01T03:04:00.060Z,79.5640
2024-04-01T03:05:01.038Z,80.1868
2024-04-01T03:06:02.040Z,80.5294
2024-04-01T03:07:03.011Z,80.8306
2024-04-01T03:08:04.959Z,81.1346
2024-04-01T03:09:06.044Z,81.2849
2024-04-01T03:10:07.166Z,81.6089
2024-04-01T03:11:08.130Z,81.8359
2024-04-01T03:12:09.072Z,82.1518
2024-04-01T03:13:10.034Z,82.6788
2024-04-01T03:14:10.998Z,83.2224
2024-04-01T03:15:12.131Z,83.8407
2024-04-01T03:16:13.243Z,84.2892
2024-04-01T03:17:14.344Z,84.6991
2024-04-01T03:18:15.455Z,85.1873
2024-04-01T03:19:16.405Z,85.4700
2024-04-01T03:20:17.405Z,85.6140
2024-04-01T03:21:18.321Z,85.5390
2024-04-01T03:22:19.331Z,85.4519
2024-04-01T03:23:20.480Z,85.7044
2024-04-01T03:24:21.374Z,85.6159
2024-04-01T03:25:22.389Z,85.4590
2024-04-01T03:26:23.474Z,85.3443
2024-04-01T03:27:24.615Z,85.5124
2024-04-01T03:28:25.743Z,85.5830
2024-04-01T03:29:26.851Z,85.6229
2024-04-01T03:30:28.123Z,85.7567
2024-04-01T03:31:29.073Z,85.8789
2024-04-01T03:32:30.201Z,86.1276
2024-04-01T03:33:31.271Z,86.3507
2024-04-01T03:34:32.382Z,86.5448
2024-04-01T03:35:33.344Z,86.6844
2024-04-01T03:36:34.361Z,86.7661
2024-04-01T03:37:35.501Z,86.9598
2024-04-01T03:38:36.602Z,87.1281
2024-04-01T03:39:37.718Z,87.2817
2024-04-01T03:40:38.832Z,87.3715
2024-04-01T03:41:40.729Z,87.5191
2024-04-01T03:42:42.042Z,87.6223
2024-04-01T03:43:43.194Z,87.8183
2024-04-01T03:44:44.299Z,87.9961
2024-04-01T03:45:45.412Z,88.0726
2024-04-01T03:46:46.523Z,88.0436
2024-04-01T03:47:47.610Z,88.0471
2024-04-01T03:48:48.763Z,88.0758
2024-04-01T03:49:49.883Z,88.1197
2024-04-01T03:50:50.985Z,88.1184
2024-04-01T03:51:52.115Z,88.1141
2024-04-01T03:52:53.248Z,88.0574
2024-04-01T03:53:54.290Z,87.9377
2024-04-01T03:54:55.503Z,88.0002
2024-04-01T03:55:56.570Z,88.0142
2024-04-01T03:56:57.721Z,87.9702
2024-04-01T03:57:58.834Z,87.8009
2024-04-01T03:58:59.959Z,87.6714
2024-04-01T04:00:01.047Z,87.7367
2024-04-01T04:01:02.206Z,87.7814
2024-04-01T04:02:03.330Z,87.6519
2024-04-01T04:03:04.458Z,87.4286
2024-04-01T04:04:05.546Z,87.4434
2024-04-01T04:05:06.696Z,87.5007
2024-04-01T04:06:07.816Z,87.6334
2024-04-01T04:07:08.979Z,87.4561
2024-04-01T04:08:10.020Z,87.1424
2024-04-01T04:09:11.175Z,86.7490
2024-04-01T04:10:12.287Z,86.3347
2024-04-01T04:11:13.386Z,86.3565
2024-04-01T04:12:14.518Z,86.4012
2024-04-01T04:13:15.691Z,86.4162
2024-04-01T04:14:16.767Z,86.6527
2024-04-01T04:15:17.887Z,87.0075
2024-04-01T04:16:19.012Z,87.2730
2024-04-01T04:17:20.133Z,87.7574
2024-04-01T04:18:21.256Z,88.0558
2024-04-01T04:19:22.372Z,88.3411
2024-04-01T04:20:23.490Z,88.7932
2024-04-01T04:21:24.624Z,89.1317
2024-04-01T04:22:25.734Z,89.5128
2024-04-01T04:23:26.858Z,89.7892
2024-04-01T04:24:27.985Z,90.1705
2024-04-01T04:25:29.116Z,90.4079
2024-04-01T04:26:30.202Z,90.4782
2024-04-01T04:27:31.359Z,90.4579
2024-04-01T04:28:32.441Z,89.9313
2024-04-01T04:29:33.601Z,89.1886
2024-04-01T04:30:34.689Z,88.7986
2024-04-01T04:31:35.798Z,88.9406
2024-04-01T04:32:36.889Z,89.0693
2024-04-01T04:33:38.042Z,88.4473
2024-04-01T04:34:39.154Z,88.2496
2024-04-01T04:35:40.286Z,88.5114
2024-04-01T04:36:41.399Z,89.0002
2024-04-01T04:37:42.566Z,89.0921
2024-04-01T04:38:43.607Z,89.4216
2024-04-01T04:39:44.723Z,89.7012
2024-04-01T04:40:45.886Z,89.6543
2024-04-01T04:41:47.030Z,89.8248
2024-04-01T04:42:48.121Z,89.5266
2024-04-01T04:43:49.240Z,89.6315
2024-04-01T04:44:50.364Z,89.8652
2024-04-01T04:45:51.516Z,89.9714
2024-04-01T04:46:52.580Z,90.0478
2024-04-01T04:47:53.764Z,89.8060
2024-04-01T04:48:54.840Z,89.8266
2024-04-01T04:49:55.972Z,89.7591
2024-04-01T04:50:57.034Z,89.9122
2024-04-01T04:51:58.002Z,90.1756
2024-04-01T04:52:59.021Z,90.5697
2024-04-01T04:54:00.160Z,90.7753
2024-04-01T04:55:01.251Z,90.8637
2024-04-01T04:56:02.365Z,91.0748
2024-04-01T04:57:03.475Z,91.3136
2024-04-01T04:58:04.613Z,91.3009
2024-04-01T04:59:05.727Z,91.3602
2024-04-01T05:00:06.852Z,91.4568
2024-04-01T05:01:07.987Z,91.4134
2024-04-01T05:02:09.081Z,91.5359
2024-04-01T05:03:10.172Z,91.5678
2024-04-01T05:04:11.313Z,91.5060
2024-04-01T05:05:12.463Z,91.6364
2024-04-01T05:06:13.517Z,91.8461
2024-04-01T05:07:14.541Z,91.8128
2024-04-01T05:08:15.486Z,91.7165
2024-04-01T05:09:16.601Z,91.8412
2024-04-01T05:10:17.753Z,91.9020
2024-04-01T05:11:18.845Z,91.9368
2024-04-01T05:12:19.965Z,91.8417
2024-04-01T05:13:21.086Z,91.6958
2024-04-01T05:14:22.174Z,91.6307
2024-04-01T05:15:23.286Z,91.6595
2024-04-01T05:16:24.443Z,91.7619
2024-04-01T05:17:25.565Z,91.8816
2024-04-01T05:18:26.651Z,91.9912
2024-04-01T05:19:27.803Z,92.1419
2024-04-01T05:20:28.945Z,92.0848
2024-04-01T05:21:30.033Z,92.0877
2024-04-01T05:22:31.112Z,91.9310
2024-04-01T05:23:32.270Z,91.8962
2024-04-01T05:24:33.243Z,91.9895
2024-04-01T05:25:34.266Z,91.9929
2024-04-01T05:26:35.337Z,91.7956
2024-04-01T05:27:36.438Z,91.6656
2024-04-01T05:28:37.562Z,91.1732
2024-04-01T05:29:38.682Z,91.0781
2024-04-01T05:30:39.822Z,90.9472
2024-04-01T05:31:40.913Z,90.8724
2024-04-01T05:32:42.113Z,91.0013
2024-04-01T05:33:43.206Z,91.3147
2024-04-01T05:34:44.293Z,91.2904
2024-04-01T05:35:45.402Z,91.2747
2024-04-01T05:36:46.542Z,91.0262
2024-04-01T05:37:47.628Z,90.7556
2024-04-01T05:38:48.726Z,90.7426
2024-04-01T05:39:49.877Z,90.5434
2024-04-01T05:40:51.007Z,90.4263
2024-04-01T05:41:52.082Z,90.3833
2024-04-01T05:42:53.252Z,90.3325
2024-04-01T05:43:54.373Z,90.4753
2024-04-01T05:44:55.492Z,90.2840
2024-04-01T05:45:56.600Z,90.3714
2024-04-01T05:46:57.745Z,90.4079
2024-04-01T05:47:58.839Z,90.0023
2024-04-01T05:48:59.965Z,89.7268
2024-04-01T05:50:01.079Z,89.7264
2024-04-01T05:51:02.211Z,89.8012
2024-04-01T05:52:03.318Z,89.5223
2024-04-01T05:53:04.421Z,89.2467
2024-04-01T05:54:05.588Z,88.8193
2024-04-01T05:55:06.692Z,88.8161
2024-04-01T05:56:07.756Z,89.2973
2024-04-01T05:57:08.916Z,89.0975
2024-04-01T05:58:10.014Z,88.4222
2024-04-01T05:59:11.178Z,88.5335
2024-04-01T06:00:12.280Z,88.5956
2024-04-01T06:01:13.404Z,88.6549
2024-04-01T06:02:14.546Z,88.9032
2024-04-01T06:03:15.691Z,88.8984
2024-04-01T06:04:16.776Z,89.0076
2024-04-01T06:05:17.850Z,88.1671
2024-04-01T06:06:18.992Z,88.4112
2024-04-01T06:07:20.133Z,88.3048
2024-04-01T06:08:21.237Z,88.7856
2024-04-01T06:09:22.344Z,89.3758
2024-04-01T06:10:23.485Z,89.3790
2024-04-01T06:11:24.629Z,88.8153
2024-04-01T06:12:25.676Z,87.8946
2024-04-01T06:13:26.838Z,87.6032
2024-04-01T06:14:29.510Z,87.2408
2024-04-01T06:15:29.375Z,87.5634
2024-04-01T06:16:30.556Z,87.5081
2024-04-01T06:17:31.657Z,87.2809
2024-04-01T06:18:32.671Z,88.2679
2024-04-01T06:19:33.731Z,87.4773
2024-04-01T06:20:34.683Z,86.1097
2024-04-01T06:21:35.822Z,85.5599
2024-04-01T06:22:36.941Z,85.5148
2024-04-01T06:23:38.040Z,85.2974
2024-04-01T06:24:39.161Z,85.6393
2024-04-01T06:25:40.296Z,85.5569
2024-04-01T06:26:41.539Z,85.2723
2024-04-01T06:27:42.595Z,84.7897
2024-04-01T06:28:43.641Z,84.1552
2024-04-01T06:29:44.716Z,83.1959
2024-04-01T06:30:45.965Z,83.3558
2024-04-01T06:31:46.971Z,83.1273
2024-04-01T06:32:48.132Z,82.8279
2024-04-01T06:33:49.237Z,83.2628
2024-04-01T06:34:50.359Z,83.2843
2024-04-01T06:35:51.511Z,83.1504
2024-04-01T06:36:52.600Z,83.3839
2024-04-01T06:37:53.743Z,83.2107
2024-04-01T06:38:54.846Z,83.5444
2024-04-01T06:39:55.978Z,84.2170
2024-04-01T06:40:57.080Z,85.2259
2024-04-01T06:41:58.205Z,85.7164
2024-04-01T06:42:59.306Z,85.6622
2024-04-01T06:44:00.453Z,86.2086
2024-04-01T06:45:01.578Z,86.6008
2024-04-01T06:46:02.662Z,86.6438
2024-04-01T06:47:03.801Z,86.5749
2024-04-01T06:48:04.921Z,85.4428
2024-04-01T06:49:06.045Z,85.7153
2024-04-01T06:50:07.172Z,84.7740
2024-04-01T06:51:08.285Z,83.9345
2024-04-01T06:52:09.418Z,83.0876
2024-04-01T06:53:10.515Z,83.3695
2024-04-01T06:54:11.671Z,83.6594
2024-04-01T06:55:12.771Z,84.0059
2024-04-01T06:56:13.895Z,84.1962
2024-04-01T06:57:15.003Z,84.2027
2024-04-01T06:58:16.191Z,84.1776
2024-04-01T06:59:17.216Z,83.3759
2024-04-01T07:00:18.383Z,83.3059
2024-04-01T07:01:19.485Z,83.7371
2024-04-01T07:02:20.555Z,84.1325
2024-04-01T07:03:21.725Z,84.2000
2024-04-01T07:04:22.819Z,84.0416
2024-04-01T07:05:23.968Z,83.7447
2024-04-01T07:06:25.093Z,83.3952
2024-04-01T07:07:26.044Z,83.3160
2024-04-01T07:08:27.094Z,83.0937
2024-04-01T07:09:28.132Z,83.0564
2024-04-01T07:10:29.289Z,82.6877
2024-04-01T07:11:30.368Z,82.3102
2024-04-01T07:12:31.495Z,81.6766
2024-04-01T07:13:32.654Z,81.0871
2024-04-01T07:14:33.726Z,80.8087
2024-04-01T07:15:34.863Z,81.0005
2024-04-01T07:16:35.976Z,81.7077
2024-04-01T07:17:37.105Z,82.2924
2024-04-01T07:18:38.198Z,81.9647
2024-04-01T07:19:39.272Z,82.7096
2024-04-01T07:20:40.496Z,82.5819
2024-04-01T07:21:41.519Z,81.8057
2024-04-01T07:22:42.543Z,81.2553
2024-04-01T07:23:43.563Z,80.8964
2024-04-01T07:24:44.617Z,81.0652
2024-04-01T07:25:45.737Z,81.5601
2024-04-01T07:26:46.846Z,81.6320
2024-04-01T07:27:48.088Z,82.1915
2024-04-01T07:28:49.084Z,81.1902
2024-04-01T07:29:50.260Z,80.9145
2024-04-01T07:30:51.319Z,80.8262
2024-04-01T07:31:52.436Z,80.4037
2024-04-01T07:32:55.062Z,80.4026
2024-04-01T07:33:54.056Z,80.5275
2024-04-01T07:34:55.167Z,80.5303
2024-04-01T07:35:56.285Z,80.3139
2024-04-01T07:36:57.402Z,80.4885
2024-04-01T07:37:58.627Z,80.0911
2024-04-01T07:38:59.709Z,80.0806
2024-04-01T07:40:00.770Z,79.9864
2024-04-01T07:41:01.893Z,79.2223
2024-04-01T07:42:03.013Z,80.1053
2024-04-01T07:43:04.124Z,80.8572
2024-04-01T07:44:05.244Z,80.7956
2024-04-01T07:45:06.364Z,80.6480
2024-04-01T07:46:07.544Z,80.1371
2024-04-01T07:47:08.619Z,79.6993
2024-04-01T07:48:09.786Z,80.1664
2024-04-01T07:49:10.903Z,80.0521
2024-04-01T07:50:11.987Z,79.3225
2024-04-01T07:51:13.083Z,79.8036
2024-04-01T07:52:14.268Z,80.0784
2024-04-01T07:53:16.360Z,80.1795
2024-04-01T07:54:16.461Z,80.6042
2024-04-01T07:55:17.639Z,80.4172
2024-04-01T07:56:18.738Z,80.1399
2024-04-01T07:57:19.820Z,80.2763
2024-04-01T07:58:20.944Z,80.2892
2024-04-01T07:59:22.115Z,80.2356
2024-04-01T08:00:23.170Z,80.6198
2024-04-01T08:01:24.272Z,80.1725
2024-04-01T08:02:25.410Z,80.0033
2024-04-01T08:03:26.583Z,79.3410
2024-04-01T08:04:27.684Z,79.2589
2024-04-01T08:05:28.823Z,79.5284
2024-04-01T08:06:29.916Z,78.9079
2024-04-01T08:07:31.013Z,78.4966
2024-04-01T08:08:32.184Z,78.4781
2024-04-01T08:09:33.299Z,78.2275
2024-04-01T08:10:34.381Z,78.0570
2024-04-01T08:11:35.547Z,78.3462
2024-04-01T08:12:36.618Z,78.8492
2024-04-01T08:13:37.750Z,79.1563
2024-04-01T08:14:38.913Z,79.1575
2024-04-01T08:15:39.971Z,78.6262
2024-04-01T08:16:41.102Z,78.4328
2024-04-01T08:17:42.257Z,78.4167
2024-04-01T08:18:43.346Z,78.3500
2024-04-01T08:19:44.500Z,78.2485
2024-04-01T08:20:45.624Z,78.2083
2024-04-01T08:21:46.699Z,78.0497
2024-04-01T08:22:47.818Z,77.6813
2024-04-01T08:23:48.987Z,77.8742
2024-04-01T08:24:50.050Z,77.8654
2024-04-01T08:25:51.244Z,77.7468
2024-04-01T08:26:52.303Z,77.2131
2024-04-01T08:27:53.372Z,77.3952
2024-04-01T08:28:54.595Z,77.2323
2024-04-01T08:29:55.673Z,76.8972
2024-04-01T08:30:56.829Z,77.3977
2024-04-01T08:31:57.898Z,77.0854
2024-04-01T08:32:59.025Z,77.3536
2024-04-01T08:34:00.149Z,77.4395
2024-04-01T08:35:01.248Z,76.4864
2024-04-01T08:36:02.421Z,76.2539
2024-04-01T08:37:03.452Z,76.3982
2024-04-01T08:38:04.652Z,75.8179
2024-04-01T08:39:05.729Z,75.9754
2024-04-01T08:40:06.896Z,75.9945
2024-04-01T08:41:08.022Z,76.2197
2024-04-01T08:42:09.105Z,76.1845
2024-04-01T08:43:10.260Z,76.1550
2024-04-01T08:44:11.375Z,75.7548
2024-04-01T08:45:12.493Z,75.8262
2024-04-01T08:46:13.606Z,75.7000
2024-04-01T08:47:14.719Z,75.2756
2024-04-01T08:48:15.836Z,74.7760
2024-04-01T08:49:16.971Z,75.0480
2024-04-01T08:50:18.109Z,74.8433
2024-04-01T08:51:19.228Z,74.6684
2024-04-01T08:52:20.348Z,74.7383
2024-04-01T08:53:21.450Z,74.9256
2024-04-01T08:54:22.545Z,74.2317
2024-04-01T08:55:23.655Z,74.1508
2024-04-01T08:56:24.754Z,74.7167
2024-04-01T08:57:25.878Z,73.9347
2024-04-01T08:58:27.081Z,74.2188
2024-04-01T08:59:28.122Z,74.2524
2024-04-01T09:00:29.272Z,74.1412
2024-04-01T09:01:30.419Z,74.3022
2024-04-01T09:02:31.536Z,73.3268
2024-04-01T09:03:32.656Z,73.1384
2024-04-01T09:04:33.756Z,72.8887
2024-04-01T09:05:34.950Z,73.6736
2024-04-01T09:06:35.983Z,73.7535
2024-04-01T09:07:37.182Z,73.8331
2024-04-01T09:08:38.269Z,73.4169
2024-04-01T09:09:39.324Z,73.6763
2024-04-01T09:10:40.599Z,74.0771
2024-04-01T09:11:41.736Z,73.3227
2024-04-01T09:12:42.841Z,73.6009
2024-04-01T09:13:43.942Z,73.9223
2024-04-01T09:14:45.216Z,73.0941
2024-04-01T09:15:46.428Z,72.9853
2024-04-01T09:16:47.559Z,73.0397
2024-04-01T09:17:48.599Z,72.3466
2024-04-01T09:18:49.774Z,72.7010
2024-04-01T09:19:50.838Z,73.1236
2024-04-01T09:20:52.025Z,72.8636
2024-04-01T09:21:53.157Z,72.7366
2024-04-01T09:22:54.254Z,72.7121
2024-04-01T09:23:56.107Z,72.9222
2024-04-01T09:24:55.836Z,73.4243
2024-04-01T09:25:56.961Z,72.7543
2024-04-01T09:26:58.137Z,72.0586
2024-04-01T09:27:59.194Z,72.0165
2024-04-01T09:29:00.338Z,71.8311
2024-04-01T09:30:01.468Z,71.8253
2024-04-01T09:31:02.560Z,71.7462
2024-04-01T09:32:03.687Z,71.8092
2024-04-01T09:33:04.823Z,72.2664
2024-04-01T09:34:05.908Z,71.7656
2024-04-01T09:35:07.015Z,71.7571
2024-04-01T09:36:08.133Z,72.1437
2024-04-01T09:37:09.297Z,71.7345
2024-04-01T09:38:10.372Z,70.9299
2024-04-01T09:39:11.551Z,71.3166
2024-04-01T09:40:12.653Z,71.8267
2024-04-01T09:41:13.753Z,72.3152
2024-04-01T09:42:14.899Z,72.0604
2024-04-01T09:43:15.985Z,72.0518
2024-04-01T09:44:17.095Z,71.7672
2024-04-01T09:45:18.242Z,71.9296
2024-04-01T09:46:19.349Z,72.5802
2024-04-01T09:47:20.540Z,71.7048
2024-04-01T09:48:21.311Z,71.3636
2024-04-01T09:49:22.475Z,71.4520
2024-04-01T09:50:23.576Z,70.6959
2024-04-01T09:51:24.863Z,71.2704
2024-04-01T09:52:26.042Z,71.4447
2024-04-01T09:53:27.088Z,70.7392
2024-04-01T09:54:28.283Z,71.4464
2024-04-01T09:55:29.512Z,71.3353
2024-04-01T09:56:30.678Z,71.4683
2024-04-01T09:57:36.648Z,71.0602
2024-04-01T09:58:31.809Z,71.1547
2024-04-01T09:59:33.036Z,70.9541
2024-04-01T10:00:34.096Z,70.8881
2024-04-01T10:01:35.180Z,70.7615
2024-04-01T10:02:36.368Z,70.3773
2024-04-01T10:03:39.323Z,70.7517
2024-04-01T10:04:38.620Z,70.6013
2024-04-01T10:05:39.734Z,71.7799
2024-04-01T10:06:40.855Z,71.7639
2024-04-01T10:07:42.061Z,71.9481
2024-04-01T10:08:43.082Z,71.8343
2024-04-01T10:09:44.215Z,71.5373
2024-04-01T10:10:45.356Z,71.5535
2024-04-01T10:11:46.498Z,71.1586
2024-04-01T10:12:47.531Z,71.0841
2024-04-01T10:13:48.632Z,70.9630
2024-04-01T10:14:49.672Z,71.2379
2024-04-01T10:15:51.388Z,71.1820
2024-04-01T10:16:52.634Z,71.7219
2024-04-01T10:17:53.694Z,71.4833
2024-04-01T10:18:54.793Z,72.0607
2024-04-01T10:19:55.895Z,71.3401
2024-04-01T10:20:56.981Z,70.8717
2024-04-01T10:21:58.101Z,71.0682
2024-04-01T10:22:59.186Z,70.9693
2024-04-01T10:24:00.283Z,70.5144
2024-04-01T10:25:01.346Z,70.8078
2024-04-01T10:26:04.055Z,70.0832
2024-04-01T10:27:03.744Z,70.8326
2024-04-01T10:28:04.863Z,71.0935
2024-04-01T10:29:05.959Z,70.1677
2024-04-01T10:30:07.087Z,70.5205
2024-04-01T10:31:08.181Z,70.9419
2024-04-01T10:32:09.307Z,71.5747
2024-04-01T10:33:10.397Z,71.1165
2024-04-01T10:34:11.485Z,71.3517
2024-04-01T10:35:12.598Z,70.8996
2024-04-01T10:36:23.650Z,70.9242
2024-04-01T10:37:15.969Z,71.3275
2024-04-01T10:38:17.073Z,71.1043
2024-04-01T10:39:18.209Z,70.1778
2024-04-01T10:40:19.287Z,71.1055
2024-04-01T10:41:20.307Z,71.1257
2024-04-01T10:42:21.382Z,71.2523
2024-04-01T10:43:22.461Z,71.4770
2024-04-01T10:44:23.580Z,70.2672
2024-04-01T10:45:24.703Z,70.3629
2024-04-01T10:46:26.583Z,70.1365
2024-04-01T10:47:26.168Z,69.7287
2024-04-01T10:48:27.236Z,69.9687
2024-04-01T10:49:28.348Z,70.1285
2024-04-01T10:50:29.418Z,70.9961
2024-04-01T10:51:30.480Z,70.7284
2024-04-01T10:52:31.596Z,70.2713
2024-04-01T10:53:32.699Z,70.3808
2024-04-01T10:54:33.803Z,69.8979
2024-04-01T10:55:34.924Z,69.3784
2024-04-01T10:56:35.984Z,69.3349
2024-04-01T10:57:37.075Z,69.3895
2024-04-01T10:58:38.176Z,69.5500
2024-04-01T10:59:39.285Z,69.0102
2024-04-01T11:00:40.405Z,68.9710
2024-04-01T11:01:41.516Z,69.3026
2024-04-01T11:02:42.584Z,70.4198
2024-04-01T11:03:43.655Z,70.3118
2024-04-01T11:04:44.735Z,71.0600
2024-04-01T11:05:45.810Z,71.0816
2024-04-01T11:06:46.951Z,70.8613
2024-04-01T11:07:48.064Z,71.4745
2024-04-01T11:08:49.178Z,70.7275
2024-04-01T11:09:50.255Z,69.7237
2024-04-01T11:10:51.337Z,70.3973
2024-04-01T11:11:52.447Z,70.4094
2024-04-01T11:12:53.529Z,70.0914
2024-04-01T11:13:54.621Z,69.9060
2024-04-01T11:14:56.721Z,71.0815
2024-04-01T11:15:57.839Z,70.9869
2024-04-01T11:16:58.953Z,70.1951
2024-04-01T11:18:00.184Z,70.7254
2024-04-01T11:19:01.269Z,71.1001
2024-04-01T11:20:02.384Z,71.7984
2024-04-01T11:21:03.435Z,71.6981
2024-04-01T11:22:04.548Z,71.0937
2024-04-01T11:23:05.597Z,71.0705
2024-04-01T11:24:06.686Z,71.1393
2024-04-01T11:25:07.801Z,70.7485
2024-04-01T11:26:08.902Z,70.9585
2024-04-01T11:27:10.031Z,71.2167
2024-04-01T11:28:11.118Z,71.0750
2024-04-01T11:29:12.193Z,69.8472
2024-04-01T11:30:13.310Z,70.1250
2024-04-01T11:31:14.388Z,70.6778
2024-04-01T11:32:15.517Z,70.1537
2024-04-01T11:33:18.848Z,69.9732
2024-04-01T11:34:17.794Z,69.7236
2024-04-01T11:35:18.825Z,69.6619
2024-04-01T11:36:19.931Z,69.7845
2024-04-01T11:37:21.027Z,70.1386
2024-04-01T11:38:22.102Z,69.8608
2024-04-01T11:39:23.202Z,69.2210
2024-04-01T11:40:24.280Z,69.2669
2024-04-01T11:41:25.389Z,69.2057
2024-04-01T11:42:26.496Z,68.5764
2024-04-01T11:43:27.602Z,69.6068
2024-04-01T11:44:30.865Z,68.1072
2024-04-01T11:45:31.020Z,67.4036
2024-04-01T11:46:32.107Z,66.9113
2024-04-01T11:47:33.213Z,67.3759
2024-04-01T11:48:34.353Z,66.6291
2024-04-01T11:49:35.436Z,66.2932
2024-04-01T11:50:36.586Z,66.0677
2024-04-01T11:51:38.688Z,67.0721
2024-04-01T11:52:39.802Z,67.5477
2024-04-01T11:53:40.947Z,67.1140
2024-04-01T11:54:42.089Z,66.3007
2024-04-01T11:55:43.464Z,66.9811
2024-04-01T11:56:44.588Z,66.3311
2024-04-01T11:57:45.746Z,66.6717
2024-04-01T11:58:46.888Z,67.5113
2024-04-01T11:59:48.307Z,66.3382
2024-04-01T12:00:49.696Z,66.8366
2024-04-01T12:01:50.846Z,66.1311
2024-04-01T12:02:51.942Z,66.1607
2024-04-01T12:03:53.090Z,66.6104
2024-04-01T12:04:54.205Z,66.3990
2024-04-01T12:05:55.397Z,66.6873
2024-04-01T12:06:56.754Z,66.7708
2024-04-01T12:07:57.867Z,66.2249
2024-04-01T12:08:59.010Z,66.6497
2024-04-01T12:10:00.438Z,66.8883
2024-04-01T12:11:01.555Z,65.8160
2024-04-01T12:12:02.697Z,64.6659
2024-04-01T12:13:03.799Z,64.6855
2024-04-01T12:14:05.124Z,64.6074
2024-04-01T12:15:06.271Z,64.3171
2024-04-01T12:16:07.471Z,64.1375
2024-04-01T12:17:08.604Z,62.8373
2024-04-01T12:18:09.737Z,62.4764
2024-04-01T12:19:10.891Z,63.2384